createdAt,value
2023-01-02T00:01:35.323Z,8.90
2023-01-02T00:04:03.456Z,8.90
2023-01-02T00:06:36.131Z,8.90
2023-01-02T00:09:04.559Z,8.80
2023-01-02T00:11:32.977Z,8.90
2023-01-02T00:14:02.315Z,8.90
2023-01-02T00:16:30.514Z,8.90
2023-01-02T00:18:58.519Z,8.90
2023-01-02T00:21:26.536Z,8.90
2023-01-02T00:23:56.016Z,8.70
2023-01-02T00:26:24.059Z,8.70
2023-01-02T00:28:52.031Z,8.80
2023-01-02T00:31:20.047Z,8.80
2023-01-02T00:33:48.176Z,8.70
2023-01-02T00:36:16.536Z,8.50
2023-01-02T00:38:44.683Z,8.50
2023-01-02T00:41:14.095Z,8.40
2023-01-02T00:43:43.624Z,8.50
2023-01-02T00:46:12.545Z,8.60
2023-01-02T00:49:21.701Z,8.50
2023-01-02T00:51:53.819Z,8.50
2023-01-02T00:54:21.916Z,8.40
2023-01-02T00:56:51.207Z,8.50
2023-01-02T00:59:19.176Z,8.50
2023-01-02T01:01:47.210Z,8.60
2023-01-02T01:04:16.000Z,8.60
2023-01-02T01:06:44.084Z,8.70
2023-01-02T01:09:12.048Z,8.70
2023-01-02T01:11:40.149Z,8.80
2023-01-02T01:14:09.446Z,8.80
2023-01-02T01:16:37.596Z,8.80
2023-01-02T01:19:05.621Z,8.70
2023-01-02T01:21:33.689Z,8.70
2023-01-02T01:24:01.637Z,8.70
2023-01-02T01:26:29.669Z,8.80
2023-01-02T01:28:58.109Z,8.80
2023-01-02T01:31:27.518Z,8.70
2023-01-02T01:33:55.857Z,8.70
2023-01-02T01:36:25.326Z,8.70
2023-01-02T01:38:53.547Z,8.80
2023-01-02T01:41:22.699Z,8.80
2023-01-02T01:43:53.146Z,8.80
2023-01-02T01:46:30.506Z,8.80
2023-01-02T01:49:05.129Z,8.80
2023-01-02T01:51:36.889Z,8.80
2023-01-02T01:54:08.667Z,8.80
2023-01-02T01:56:39.896Z,8.80
2023-01-02T01:59:10.323Z,8.80
2023-01-02T02:01:41.621Z,8.80
2023-01-02T02:04:11.808Z,8.80
2023-01-02T02:06:40.471Z,8.80
2023-01-02T02:09:19.115Z,8.80
2023-01-02T02:11:47.884Z,8.80
2023-01-02T02:14:15.963Z,8.70
2023-01-02T02:16:51.455Z,8.70
2023-01-02T02:19:57.244Z,8.70
2023-01-02T02:22:55.962Z,8.70
2023-01-02T02:25:55.087Z,8.70
2023-01-02T02:28:58.552Z,8.80
2023-01-02T02:31:36.163Z,8.80
2023-01-02T02:34:14.435Z,8.70
2023-01-02T02:36:49.284Z,8.80
2023-01-02T02:39:27.188Z,8.80
2023-01-02T02:42:01.625Z,8.70
2023-01-02T02:44:40.947Z,8.60
2023-01-02T02:47:15.690Z,8.70
2023-01-02T02:49:50.377Z,8.70
2023-01-02T02:52:24.338Z,8.70
2023-01-02T02:55:01.390Z,8.70
2023-01-02T02:57:31.326Z,8.70
2023-01-02T02:59:59.693Z,8.80
2023-01-02T03:02:29.136Z,8.70
2023-01-02T03:05:00.025Z,8.80
2023-01-02T03:07:33.221Z,8.80
2023-01-02T03:10:15.963Z,8.70
2023-01-02T03:12:53.458Z,8.80
2023-01-02T03:15:29.046Z,8.70
2023-01-02T03:18:09.950Z,8.70
2023-01-02T03:20:42.498Z,8.80
2023-01-02T03:23:16.357Z,8.80
2023-01-02T03:25:45.797Z,8.80
2023-01-02T03:28:17.423Z,8.70
2023-01-02T03:30:46.891Z,8.50
2023-01-02T03:33:19.799Z,8.50
2023-01-02T03:35:51.288Z,8.50
2023-01-02T03:38:23.462Z,8.50
2023-01-02T03:40:56.878Z,8.40
2023-01-02T03:43:29.616Z,8.40
2023-01-02T03:46:05.271Z,8.20
2023-01-02T03:48:39.577Z,8.10
2023-01-02T03:51:08.298Z,8.10
2023-01-02T03:53:37.731Z,8.10
2023-01-02T03:56:19.045Z,8.00
2023-01-02T03:58:53.014Z,7.90
2023-01-02T04:01:29.033Z,8.00
2023-01-02T04:04:04.737Z,7.90
2023-01-02T04:06:38.315Z,7.80
2023-01-02T04:09:09.566Z,7.80
2023-01-02T04:11:40.565Z,7.80
2023-01-02T04:14:16.329Z,7.90
2023-01-02T04:16:46.762Z,7.80
2023-01-02T04:19:20.932Z,7.80
2023-01-02T04:21:52.286Z,7.90
2023-01-02T04:24:25.300Z,7.90
2023-01-02T04:26:59.394Z,7.80
2023-01-02T04:29:27.518Z,7.90
2023-01-02T04:32:01.838Z,8.00
2023-01-02T04:34:34.791Z,8.00
2023-01-02T04:37:02.790Z,8.00
2023-01-02T04:39:30.945Z,8.00
2023-01-02T04:41:58.908Z,8.00
2023-01-02T04:44:27.073Z,8.10
2023-01-02T04:46:55.088Z,8.20
2023-01-02T04:49:26.785Z,8.30
2023-01-02T04:51:56.148Z,8.30
2023-01-02T04:54:24.070Z,8.20
2023-01-02T04:56:52.117Z,8.10
2023-01-02T04:59:20.086Z,8.20
2023-01-02T05:01:48.115Z,8.30
2023-01-02T05:04:16.203Z,8.40
2023-01-02T05:06:44.210Z,8.40
2023-01-02T05:09:13.674Z,8.50
2023-01-02T05:11:41.664Z,8.50
2023-01-02T05:14:09.799Z,8.50
2023-01-02T05:16:37.831Z,8.50
2023-01-02T05:19:05.929Z,8.50
2023-01-02T05:21:59.612Z,8.50
2023-01-02T05:24:29.092Z,8.50
2023-01-02T05:26:57.057Z,8.50
2023-01-02T05:29:25.112Z,8.30
2023-01-02T05:31:53.251Z,8.20
2023-01-02T05:34:21.243Z,8.00
2023-01-02T05:36:49.180Z,8.00
2023-01-02T05:39:17.172Z,7.90
2023-01-02T05:41:46.520Z,7.90
2023-01-02T05:44:14.562Z,8.00
2023-01-02T05:46:42.784Z,8.00
2023-01-02T05:49:12.246Z,8.00
2023-01-02T05:51:40.401Z,8.00
2023-01-02T05:54:09.067Z,7.90
2023-01-02T05:56:37.026Z,7.90
2023-01-02T05:59:08.999Z,8.00
2023-01-02T06:01:37.116Z,7.90
2023-01-02T06:04:05.450Z,7.90
2023-01-02T06:06:35.626Z,8.00
2023-01-02T06:09:04.470Z,8.00
2023-01-02T06:11:32.749Z,8.00
2023-01-02T06:14:02.825Z,8.10
2023-01-02T06:16:32.380Z,8.10
2023-01-02T06:19:00.375Z,8.00
2023-01-02T06:21:28.345Z,8.10
2023-01-02T06:23:57.695Z,8.10
2023-01-02T06:26:32.725Z,8.00
2023-01-02T06:29:03.256Z,8.00
2023-01-02T06:31:33.607Z,8.00
2023-01-02T06:34:03.681Z,8.10
2023-01-02T06:36:33.340Z,8.20
2023-01-02T06:39:01.765Z,8.20
2023-01-02T06:41:29.958Z,8.30
2023-01-02T06:43:57.981Z,8.30
2023-01-02T06:46:26.128Z,8.20
2023-01-02T06:48:55.449Z,8.20
2023-01-02T06:51:24.611Z,8.30
2023-01-02T06:53:52.771Z,8.40
2023-01-02T06:56:22.147Z,8.40
2023-01-02T06:58:50.303Z,8.40
2023-01-02T07:01:20.422Z,8.50
2023-01-02T07:03:48.656Z,8.50
2023-01-02T07:06:20.136Z,8.50
2023-01-02T07:08:48.817Z,8.50
2023-01-02T07:11:18.356Z,8.50
2023-01-02T07:13:47.695Z,8.50
2023-01-02T07:16:18.095Z,8.50
2023-01-02T07:18:46.837Z,8.60
2023-01-02T07:21:18.070Z,8.50
2023-01-02T07:23:46.239Z,8.50
2023-01-02T07:26:14.917Z,8.60
2023-01-02T07:28:43.189Z,8.60
2023-01-02T07:31:14.412Z,8.50
2023-01-02T07:33:42.476Z,8.50
2023-01-02T07:36:15.684Z,8.60
2023-01-02T07:38:45.486Z,8.50
2023-01-02T07:41:18.155Z,8.60
2023-01-02T07:43:47.383Z,8.50
2023-01-02T07:46:16.828Z,8.50
2023-01-02T07:48:45.287Z,8.50
2023-01-02T07:51:16.426Z,8.50
2023-01-02T07:53:47.905Z,8.50
2023-01-02T07:56:16.037Z,8.50
2023-01-02T07:58:43.996Z,8.50
2023-01-02T08:01:13.868Z,8.60
2023-01-02T08:03:42.413Z,8.60
2023-01-02T08:06:12.224Z,8.60
2023-01-02T08:08:40.854Z,8.60
2023-01-02T08:11:12.123Z,8.60
2023-01-02T08:13:40.460Z,8.60
2023-01-02T08:16:10.610Z,8.60
2023-01-02T08:18:38.838Z,8.70
2023-01-02T08:21:07.604Z,8.70
2023-01-02T08:23:36.389Z,8.70
2023-01-02T08:26:07.139Z,8.70
2023-01-02T08:28:37.427Z,8.70
2023-01-02T08:31:10.477Z,8.70
2023-01-02T08:33:38.584Z,8.80
2023-01-02T08:36:07.174Z,8.80
2023-01-02T08:38:35.226Z,8.80
2023-01-02T08:41:03.264Z,8.80
2023-01-02T08:43:34.416Z,8.90
2023-01-02T08:46:06.419Z,8.90
2023-01-02T08:48:34.577Z,8.90
2023-01-02T08:51:02.982Z,8.90
2023-01-02T08:53:30.973Z,8.90
2023-01-02T08:56:20.953Z,8.90
2023-01-02T08:58:53.144Z,9.00
2023-01-02T09:01:23.066Z,8.90
2023-01-02T09:03:51.518Z,9.00
2023-01-02T09:06:21.957Z,9.00
2023-01-02T09:08:52.312Z,8.90
2023-01-02T09:11:23.184Z,8.90
2023-01-02T09:13:51.385Z,8.90
2023-01-02T09:16:19.623Z,9.00
2023-01-02T09:18:49.346Z,9.00
2023-01-02T09:21:17.804Z,9.00
2023-01-02T09:23:45.993Z,9.00
2023-01-02T09:26:15.191Z,9.10
2023-01-02T09:28:43.339Z,9.10
2023-01-02T09:31:14.049Z,9.10
2023-01-02T09:33:43.701Z,9.20
2023-01-02T09:36:15.275Z,9.20
2023-01-02T09:38:43.551Z,9.10
2023-01-02T09:41:27.820Z,9.10
2023-01-02T09:43:59.255Z,9.10
2023-01-02T09:46:32.592Z,8.90
2023-01-02T09:49:01.646Z,9.00
2023-01-02T09:51:31.949Z,8.90
2023-01-02T09:54:00.371Z,9.00
2023-01-02T09:56:34.403Z,8.90
2023-01-02T09:59:12.274Z,8.80
2023-01-02T10:01:52.544Z,8.80
2023-01-02T10:04:34.292Z,8.80
2023-01-02T10:07:10.852Z,8.80
2023-01-02T10:09:50.396Z,8.80
2023-01-02T10:12:27.852Z,8.80
2023-01-02T10:14:59.866Z,8.90
2023-01-02T10:17:31.458Z,9.00
2023-01-02T10:20:04.662Z,9.00
2023-01-02T10:22:39.989Z,9.10
2023-01-02T10:25:15.813Z,9.10
2023-01-02T10:27:50.571Z,9.20
2023-01-02T10:30:21.204Z,9.20
2023-01-02T10:32:56.271Z,9.10
2023-01-02T10:35:35.628Z,9.20
2023-01-02T10:38:05.782Z,9.10
2023-01-02T10:40:34.800Z,9.10
2023-01-02T10:43:03.070Z,9.00
2023-01-02T10:45:31.631Z,9.00
2023-01-02T10:47:59.718Z,9.00
2023-01-02T10:50:32.012Z,9.10
2023-01-02T10:53:10.021Z,9.10
2023-01-02T10:55:41.400Z,9.20
2023-01-02T10:58:18.262Z,9.20
2023-01-02T11:00:46.581Z,9.20
2023-01-02T11:03:18.001Z,9.20
2023-01-02T11:05:48.295Z,9.20
2023-01-02T11:08:21.814Z,9.20
2023-01-02T11:10:50.304Z,9.20
2023-01-02T11:13:20.078Z,9.30
2023-01-02T11:15:53.657Z,9.30
2023-01-02T11:18:26.904Z,9.40
2023-01-02T11:20:57.277Z,9.40
2023-01-02T11:23:27.722Z,9.40
2023-01-02T11:25:56.034Z,9.50
2023-01-02T11:28:27.985Z,9.50
2023-01-02T11:31:02.419Z,9.50
2023-01-02T11:33:32.335Z,9.50
2023-01-02T11:36:08.039Z,9.50
2023-01-02T11:38:45.469Z,9.60
2023-01-02T11:41:50.234Z,9.60
2023-01-02T11:44:22.930Z,9.70
2023-01-02T11:46:51.930Z,9.70
2023-01-02T11:49:22.410Z,9.70
2023-01-02T11:51:57.374Z,9.70
2023-01-02T11:54:38.315Z,9.80
2023-01-02T11:57:18.427Z,9.80
2023-01-02T11:59:49.645Z,9.80
2023-01-02T12:02:25.041Z,9.80
2023-01-02T12:04:53.128Z,9.80
2023-01-02T12:07:36.831Z,9.90
2023-01-02T12:10:21.543Z,9.80
2023-01-02T12:13:03.024Z,9.90
2023-01-02T12:16:06.005Z,9.90
2023-01-02T12:18:45.359Z,10.00
2023-01-02T12:21:23.278Z,10.00
2023-01-02T12:24:17.574Z,10.10
2023-01-02T12:26:55.373Z,10.10
2023-01-02T12:29:48.820Z,10.10
2023-01-02T12:32:51.328Z,10.10
2023-01-02T12:36:01.064Z,10.10
2023-01-02T12:38:37.909Z,10.10
2023-01-02T12:41:21.598Z,10.10
2023-01-02T12:44:11.489Z,10.20
2023-01-02T12:47:02.785Z,10.20
2023-01-02T12:49:54.592Z,10.30
2023-01-02T12:52:40.865Z,10.40
2023-01-02T12:55:28.123Z,10.40
2023-01-02T12:58:01.475Z,10.50
2023-01-02T13:00:51.681Z,10.50
2023-01-02T13:03:42.003Z,10.50
2023-01-02T13:06:45.548Z,10.60
2023-01-02T13:09:07.430Z,10.70
2023-01-02T13:11:40.210Z,10.70
2023-01-02T13:14:12.326Z,10.70
2023-01-02T13:16:43.120Z,10.70
2023-01-02T13:19:19.790Z,10.70
2023-01-02T13:21:53.153Z,10.70
2023-01-02T13:24:25.539Z,10.70
2023-01-02T13:26:55.386Z,10.70
2023-01-02T13:29:29.422Z,10.70
2023-01-02T13:31:59.279Z,10.70
2023-01-02T13:34:30.462Z,10.70
2023-01-02T13:37:06.491Z,10.70
2023-01-02T13:39:46.318Z,10.70
2023-01-02T13:42:42.344Z,10.70
2023-01-02T13:45:16.393Z,10.80
2023-01-02T13:47:52.041Z,10.80
2023-01-02T13:50:26.333Z,10.70
2023-01-02T13:53:02.535Z,10.80
2023-01-02T13:55:32.850Z,10.70
2023-01-02T13:58:29.119Z,10.80
2023-01-02T14:00:58.103Z,10.80
2023-01-02T14:03:40.189Z,10.80
2023-01-02T14:06:29.836Z,10.80
2023-01-02T14:09:13.064Z,10.80
2023-01-02T14:11:55.725Z,10.70
2023-01-02T14:14:33.401Z,10.60
2023-01-02T14:17:15.229Z,10.60
2023-01-02T14:19:45.151Z,10.50
2023-01-02T14:22:14.961Z,10.50
2023-01-02T14:24:45.124Z,10.50
2023-01-02T14:27:24.098Z,10.40
2023-01-02T14:29:55.125Z,10.40
2023-01-02T14:32:29.499Z,10.40
2023-01-02T14:34:59.692Z,10.30
2023-01-02T14:37:32.845Z,10.30
2023-01-02T14:40:12.197Z,10.30
2023-01-02T14:42:58.967Z,10.20
2023-01-02T14:45:28.351Z,10.20
2023-01-02T14:48:00.885Z,10.20
2023-01-02T14:50:35.975Z,10.20
2023-01-02T14:53:11.018Z,10.20
2023-01-02T14:55:42.475Z,10.20
2023-01-02T14:58:19.387Z,10.10
2023-01-02T15:00:49.781Z,10.10
2023-01-02T15:03:29.525Z,10.00
2023-01-02T15:06:04.596Z,10.00
2023-01-02T15:08:38.395Z,10.00
2023-01-02T15:11:35.668Z,10.10
2023-01-02T15:14:06.206Z,10.20
2023-01-02T15:16:42.695Z,10.20
2023-01-02T15:19:18.146Z,10.20
2023-01-02T15:21:48.069Z,10.20
2023-01-02T15:24:24.865Z,10.20
2023-01-02T15:26:53.408Z,10.30
2023-01-02T15:29:24.097Z,10.30
2023-01-02T15:31:54.235Z,10.30
2023-01-02T15:34:26.948Z,10.30
2023-01-02T15:37:00.384Z,10.30
2023-01-02T15:39:34.923Z,10.30
2023-01-02T15:42:11.915Z,10.40
2023-01-02T15:44:58.154Z,10.30
2023-01-02T15:47:28.575Z,10.30
2023-01-02T15:49:58.577Z,10.40
2023-01-02T15:52:32.087Z,10.40
2023-01-02T15:55:01.050Z,10.40
2023-01-02T15:57:32.358Z,10.30
2023-01-02T16:00:01.022Z,10.30
2023-01-02T16:02:41.919Z,10.30
2023-01-02T16:05:13.904Z,10.30
2023-01-02T16:07:43.892Z,10.30
2023-01-02T16:10:19.862Z,10.30
2023-01-02T16:12:52.578Z,10.30
2023-01-02T16:15:24.937Z,10.30
2023-01-02T16:17:54.971Z,10.30
2023-01-02T16:20:24.717Z,10.20
2023-01-02T16:22:57.697Z,10.20
2023-01-02T16:25:28.821Z,10.20
2023-01-02T16:28:01.253Z,10.20
2023-01-02T16:30:37.865Z,10.20
2023-01-02T16:33:21.361Z,10.20
2023-01-02T16:36:00.545Z,10.20
2023-01-02T16:38:30.481Z,10.20
2023-01-02T16:41:04.691Z,10.30
2023-01-02T16:43:42.892Z,10.20
2023-01-02T16:46:15.543Z,10.10
2023-01-02T16:48:44.836Z,10.10
2023-01-02T16:51:15.247Z,10.10
2023-01-02T16:53:45.900Z,10.10
2023-01-02T16:56:15.179Z,10.20
2023-01-02T16:58:43.217Z,10.10
2023-01-02T17:01:13.265Z,10.10
2023-01-02T17:03:42.010Z,10.20
2023-01-02T17:06:14.224Z,10.20
2023-01-02T17:08:44.491Z,10.20
2023-01-02T17:11:15.680Z,10.20
2023-01-02T17:13:43.701Z,10.10
2023-01-02T17:16:11.869Z,10.10
2023-01-02T17:18:39.901Z,10.10
2023-01-02T17:21:08.234Z,10.10
2023-01-02T17:23:36.223Z,10.10
2023-01-02T17:26:06.145Z,10.10
2023-01-02T17:28:34.089Z,10.10
2023-01-02T17:31:02.127Z,10.10
2023-01-02T17:33:30.102Z,10.10
2023-01-02T17:35:58.256Z,10.10
2023-01-02T17:38:26.321Z,10.10
2023-01-02T17:40:57.877Z,10.10
2023-01-02T17:43:27.445Z,10.10
2023-01-02T17:45:55.563Z,10.10
2023-01-02T17:48:24.943Z,10.10
2023-01-02T17:50:53.522Z,10.10
2023-01-02T17:53:21.699Z,10.10
2023-01-02T17:55:52.406Z,10.00
2023-01-02T17:58:42.011Z,10.00
2023-01-02T18:01:18.254Z,9.90
2023-01-02T18:03:46.746Z,9.90
2023-01-02T18:06:15.208Z,9.90
2023-01-02T18:08:43.381Z,9.90
2023-01-02T18:11:13.672Z,9.90
2023-01-02T18:13:44.976Z,9.90
2023-01-02T18:16:17.435Z,9.90
2023-01-02T18:18:46.782Z,9.90
2023-01-02T18:21:17.742Z,9.90
2023-01-02T18:23:46.308Z,9.90
2023-01-02T18:26:18.637Z,9.90
2023-01-02T18:28:51.334Z,9.90
2023-01-02T18:31:20.800Z,9.90
2023-01-02T18:33:49.011Z,9.90
2023-01-02T18:36:21.037Z,9.90
2023-01-02T18:38:50.854Z,9.90
2023-01-02T18:41:22.834Z,9.90
2023-01-02T18:43:55.067Z,9.90
2023-01-02T18:46:26.757Z,9.80
2023-01-02T18:49:19.162Z,9.80
2023-01-02T18:51:47.407Z,9.90
2023-01-02T18:54:24.224Z,9.90
2023-01-02T18:56:52.214Z,9.90
2023-01-02T18:59:29.208Z,9.90
2023-01-02T19:02:02.247Z,9.90
2023-01-02T19:04:36.174Z,9.90
2023-01-02T19:07:18.080Z,9.90
2023-01-02T19:09:46.173Z,9.80
2023-01-02T19:12:46.790Z,9.80
2023-01-02T19:15:42.897Z,9.90
2023-01-02T19:18:30.014Z,9.90
2023-01-02T19:21:04.463Z,9.80
2023-01-02T19:23:35.899Z,9.80
2023-01-02T19:26:18.184Z,9.70
2023-01-02T19:28:53.139Z,9.80
2023-01-02T19:31:22.989Z,9.80
2023-01-02T19:33:55.841Z,9.80
2023-01-02T19:36:31.285Z,9.80
2023-01-02T19:38:59.370Z,9.80
2023-01-02T19:41:41.221Z,9.80
2023-01-02T19:44:09.271Z,9.80
2023-01-02T19:46:38.999Z,9.80
2023-01-02T19:49:06.955Z,9.60
2023-01-02T19:51:34.959Z,9.60
2023-01-02T19:54:04.539Z,9.60
2023-01-02T19:56:32.867Z,9.70
2023-01-02T19:59:01.021Z,9.70
2023-01-02T20:01:29.118Z,9.80
2023-01-02T20:03:58.693Z,9.70
2023-01-02T20:06:28.512Z,9.80
2023-01-02T20:08:56.583Z,9.80
2023-01-02T20:11:41.911Z,9.80
2023-01-02T20:14:09.957Z,9.80
2023-01-02T20:16:37.967Z,9.70
2023-01-02T20:19:07.312Z,9.70
2023-01-02T20:21:35.319Z,9.70
2023-01-02T20:24:03.423Z,9.70
2023-01-02T20:26:31.486Z,9.70
2023-01-02T20:28:59.623Z,9.70
2023-01-02T20:31:31.055Z,9.70
2023-01-02T20:33:59.097Z,9.70
2023-01-02T20:36:28.787Z,9.70
2023-01-02T20:38:56.881Z,9.70
2023-01-02T20:41:25.041Z,9.70
2023-01-02T20:43:53.087Z,9.70
2023-01-02T20:46:21.162Z,9.60
2023-01-02T20:48:49.259Z,9.60
2023-01-02T20:51:17.255Z,9.60
2023-01-02T20:53:46.754Z,9.70
2023-01-02T20:56:16.930Z,9.70
2023-01-02T20:58:45.138Z,9.70
2023-01-02T21:01:13.928Z,9.60
2023-01-02T21:03:42.585Z,9.60
2023-01-02T21:06:10.794Z,9.60
2023-01-02T21:08:38.943Z,9.60
2023-01-02T21:11:09.460Z,9.60
2023-01-02T21:13:38.770Z,9.60
2023-01-02T21:16:07.218Z,9.60
2023-01-02T21:18:38.111Z,9.60
2023-01-02T21:21:08.051Z,9.60
2023-01-02T21:23:37.832Z,9.60
2023-01-02T21:26:07.200Z,9.60
2023-01-02T21:28:38.721Z,9.60
2023-01-02T21:31:07.891Z,9.60
2023-01-02T21:33:36.274Z,9.60
2023-01-02T21:36:08.583Z,9.60
2023-01-02T21:38:37.342Z,9.50
2023-01-02T21:41:19.509Z,9.50
2023-01-02T21:43:49.353Z,9.60
2023-01-02T21:46:17.345Z,9.60
2023-01-02T21:48:45.309Z,9.60
2023-01-02T21:51:13.855Z,9.60
2023-01-02T21:53:41.946Z,9.60
2023-01-02T21:56:10.022Z,9.60
2023-01-02T21:58:38.218Z,9.60
2023-01-02T22:01:07.669Z,9.60
2023-01-02T22:03:35.724Z,9.60
2023-01-02T22:06:03.774Z,9.60
2023-01-02T22:08:32.148Z,9.60
2023-01-02T22:11:16.023Z,9.60
2023-01-02T22:13:44.081Z,9.60
2023-01-02T22:16:13.601Z,9.50
2023-01-02T22:18:41.640Z,9.40
2023-01-02T22:21:09.655Z,9.40
2023-01-02T22:23:37.639Z,9.40
2023-01-02T22:26:05.725Z,9.40
2023-01-02T22:28:33.683Z,9.50
2023-01-02T22:31:01.767Z,9.50
2023-01-02T22:33:31.135Z,9.60
2023-01-02T22:36:01.103Z,9.60
2023-01-02T22:38:29.087Z,9.60
2023-01-02T22:40:57.399Z,9.60
2023-01-02T22:43:25.424Z,9.50
2023-01-02T22:45:55.035Z,9.40
2023-01-02T22:48:25.339Z,9.50
2023-01-02T22:51:00.870Z,9.50
2023-01-02T22:53:32.617Z,9.50
2023-01-02T22:56:02.772Z,9.50
2023-01-02T22:58:30.716Z,9.60
2023-01-02T23:01:01.284Z,9.50
2023-01-02T23:03:30.897Z,9.60
2023-01-02T23:06:00.216Z,9.60
2023-01-02T23:08:28.383Z,9.60
2023-01-02T23:10:56.442Z,9.60
2023-01-02T23:13:27.297Z,9.50
2023-01-02T23:16:18.386Z,9.50
2023-01-02T23:19:04.779Z,9.40
2023-01-02T23:21:36.224Z,9.40
2023-01-02T23:24:05.396Z,9.50
2023-01-02T23:26:36.867Z,9.50
2023-01-02T23:29:07.644Z,9.50
2023-01-02T23:31:36.415Z,9.60
2023-01-02T23:34:04.825Z,9.60
2023-01-02T23:36:34.790Z,9.50
2023-01-02T23:39:03.094Z,9.60
2023-01-02T23:41:31.468Z,9.50
2023-01-02T23:43:59.535Z,9.50
2023-01-02T23:46:27.562Z,9.50
2023-01-02T23:48:55.760Z,9.50
2023-01-02T23:51:23.776Z,9.50
2023-01-02T23:53:53.146Z,9.50
2023-01-02T23:56:23.339Z,9.40
2023-01-02T23:58:53.653Z,9.40
